createdAt,value
2022-08-17T00:00:43.429Z,10
2022-08-17T00:02:30.348Z,9.9
2022-08-17T00:04:30.555Z,10.1
2022-08-17T00:06:30.962Z,10.2
2022-08-17T00:08:33.532Z,10.1
2022-08-17T00:10:32.525Z,10.2
2022-08-17T00:12:42.787Z,10.3
2022-08-17T00:14:33.091Z,10.1
2022-08-17T00:16:55.893Z,10.2
2022-08-17T00:18:58.152Z,11.6
2022-08-17T00:20:35.049Z,10.9
2022-08-17T00:22:36.385Z,11.7
2022-08-17T00:24:34.217Z,11.2
2022-08-17T00:26:44.587Z,11.6
2022-08-17T00:28:35.620Z,11.7
2022-08-17T00:30:53.100Z,10.6
2022-08-17T00:33:12.121Z,10.4
2022-08-17T00:34:35.954Z,10
2022-08-17T00:36:36.305Z,10.2
2022-08-17T00:38:36.839Z,10
2022-08-17T00:40:40.685Z,10.1
2022-08-17T00:42:37.862Z,10.7
2022-08-17T00:44:37.752Z,10.2
2022-08-17T00:46:41.495Z,10.7
2022-08-17T00:48:39.530Z,10.3
2022-08-17T00:50:49.186Z,10.7
2022-08-17T00:52:47.025Z,10.4
2022-08-17T00:54:44.242Z,11.5
2022-08-17T00:56:43.860Z,11.3
2022-08-17T00:58:40.896Z,11.2
2022-08-17T01:00:44.388Z,11
2022-08-17T01:02:43.786Z,11.1
2022-08-17T01:04:43.654Z,11.5
2022-08-17T01:06:43.083Z,11.4
2022-08-17T01:08:42.479Z,11
2022-08-17T01:10:57.273Z,11.3
2022-08-17T01:12:42.998Z,11.8
2022-08-17T01:14:43.113Z,12
2022-08-17T01:16:43.430Z,12.7
2022-08-17T01:18:47.071Z,12
2022-08-17T01:20:48.614Z,12.1
2022-08-17T01:22:44.495Z,12.5
2022-08-17T01:24:49.720Z,12.1
2022-08-17T01:26:46.523Z,12
2022-08-17T01:28:55.110Z,12.2
2022-08-17T01:30:58.580Z,12
2022-08-17T01:32:46.415Z,12.2
2022-08-17T01:34:50.600Z,12
2022-08-17T01:36:49.139Z,12.9
2022-08-17T01:38:47.278Z,12.7
2022-08-17T01:40:57.498Z,12.4
2022-08-17T01:42:54.261Z,12.9
2022-08-17T01:44:52.335Z,13.1
2022-08-17T01:46:48.826Z,13
2022-08-17T01:48:49.507Z,12.2
2022-08-17T01:50:51.246Z,12.8
2022-08-17T01:52:54.939Z,13.2
2022-08-17T01:54:51.737Z,13.9
2022-08-17T01:56:51.398Z,14.2
2022-08-17T01:58:51.732Z,14.9
2022-08-17T02:01:00.795Z,15
2022-08-17T02:02:51.399Z,14.9
2022-08-17T02:04:51.467Z,14.9
2022-08-17T02:06:53.661Z,14
2022-08-17T02:09:02.302Z,13.4
2022-08-17T02:10:52.506Z,14.3
2022-08-17T02:12:53.048Z,13.8
2022-08-17T02:14:53.248Z,14.5
2022-08-17T02:16:53.769Z,14.2
2022-08-17T02:18:53.667Z,14
2022-08-17T02:20:54.147Z,13.5
2022-08-17T02:22:55.124Z,13.9
2022-08-17T02:24:59.360Z,14.1
2022-08-17T02:26:55.030Z,13.7
2022-08-17T02:28:55.340Z,14.7
2022-08-17T02:31:00.970Z,14.3
2022-08-17T02:32:56.134Z,24.8
2022-08-17T02:34:57.040Z,23.9
2022-08-17T02:36:56.635Z,15.3
2022-08-17T02:38:57.080Z,14.8
2022-08-17T02:40:58.302Z,14.5
2022-08-17T02:42:58.349Z,14.6
2022-08-17T02:44:57.983Z,14
2022-08-17T02:46:58.385Z,13.6
2022-08-17T02:48:59.176Z,14.3
2022-08-17T02:50:59.576Z,14.5
2022-08-17T02:53:02.416Z,13.4
2022-08-17T02:54:59.789Z,13.1
2022-08-17T02:57:00.049Z,13.3
2022-08-17T02:59:00.391Z,13.5
2022-08-17T03:01:00.713Z,14.2
2022-08-17T03:03:02.987Z,14.4
2022-08-17T03:05:01.356Z,14.1
2022-08-17T03:07:01.762Z,13.7
2022-08-17T03:09:02.193Z,14.2
2022-08-17T03:11:02.471Z,13.8
2022-08-17T03:13:02.819Z,14.1
2022-08-17T03:15:05.070Z,13.9
2022-08-17T03:17:03.491Z,14.2
2022-08-17T03:19:03.734Z,14.9
2022-08-17T03:21:04.510Z,15.4
2022-08-17T03:23:04.823Z,14.7
2022-08-17T03:25:10.615Z,15.7
2022-08-17T03:27:05.071Z,15.3
2022-08-17T03:29:05.366Z,15.1
2022-08-17T03:31:06.731Z,16.2
2022-08-17T03:33:08.169Z,15.7
2022-08-17T03:35:07.368Z,15.9
2022-08-17T03:37:07.220Z,15.7
2022-08-17T03:39:07.783Z,15.6
2022-08-17T03:41:07.757Z,15.9
2022-08-17T03:43:08.708Z,16.1
2022-08-17T03:45:15.103Z,16.6
2022-08-17T03:47:08.576Z,16.4
2022-08-17T03:49:09.288Z,15.8
2022-08-17T03:51:15.485Z,16.4
2022-08-17T03:53:15.604Z,16.4
2022-08-17T03:55:10.057Z,16.5
2022-08-17T03:57:11.162Z,16.9
2022-08-17T03:59:21.105Z,16.6
2022-08-17T04:01:11.677Z,18.6
2022-08-17T04:03:12.458Z,18
2022-08-17T04:05:12.319Z,18.7
2022-08-17T04:07:12.815Z,20.7
2022-08-17T04:09:13.791Z,19.7
2022-08-17T04:11:13.823Z,18.8
2022-08-17T04:13:14.359Z,18.8
2022-08-17T04:15:16.543Z,18.7
2022-08-17T04:17:15.667Z,19.1
2022-08-17T04:19:15.909Z,19.7
2022-08-17T04:21:16.808Z,17.8
2022-08-17T04:23:18.368Z,18
2022-08-17T04:25:19.675Z,17.2
2022-08-17T04:27:18.130Z,16.7
2022-08-17T04:29:19.065Z,17.6
2022-08-17T04:31:19.509Z,17.1
2022-08-17T04:33:22.147Z,17.7
2022-08-17T04:35:23.280Z,16.8
2022-08-17T04:37:21.038Z,16.3
2022-08-17T04:39:21.585Z,16.3
2022-08-17T04:41:22.336Z,16.6
2022-08-17T04:43:25.722Z,16.9
2022-08-17T04:45:23.334Z,17.7
2022-08-17T04:47:23.854Z,19.5
2022-08-17T04:49:24.527Z,18.6
2022-08-17T04:51:28.441Z,18.1
2022-08-17T04:53:26.771Z,15.6
2022-08-17T04:55:26.334Z,15.1
2022-08-17T04:57:26.870Z,15.1
2022-08-17T04:59:27.430Z,15
2022-08-17T05:01:30.606Z,15.7
2022-08-17T05:03:29.478Z,16.3
2022-08-17T05:05:31.601Z,14.4
2022-08-17T05:07:31.682Z,13.3
2022-08-17T05:09:30.489Z,16.3
2022-08-17T05:11:31.083Z,17.2
2022-08-17T05:13:31.673Z,16.6
2022-08-17T05:15:36.382Z,17.2
2022-08-17T05:17:33.091Z,19.8
2022-08-17T05:19:33.550Z,21.4
2022-08-17T05:21:34.066Z,19.2
2022-08-17T05:23:42.864Z,17
2022-08-17T05:25:37.999Z,17.4
2022-08-17T05:27:36.047Z,18.1
2022-08-17T05:29:36.574Z,19.9
2022-08-17T05:31:37.264Z,22.3
2022-08-17T05:33:44.417Z,14.5
2022-08-17T05:35:41.402Z,13.3
2022-08-17T05:37:39.309Z,13.4
2022-08-17T05:39:39.939Z,13.1
2022-08-17T05:41:40.746Z,13.1
2022-08-17T05:43:41.856Z,13.5
2022-08-17T05:45:55.678Z,13.2
2022-08-17T05:47:44.898Z,12.7
2022-08-17T05:49:43.219Z,12.4
2022-08-17T05:52:01.204Z,13.4
2022-08-17T05:53:52.623Z,13.4
2022-08-17T05:55:55.247Z,13.2
2022-08-17T05:57:58.642Z,12.9
2022-08-17T05:59:58.094Z,13.8
2022-08-17T06:01:55.328Z,14.3
2022-08-17T06:03:56.852Z,16.8
2022-08-17T06:06:03.311Z,17.5
2022-08-17T06:07:56.739Z,15.9
2022-08-17T06:09:56.841Z,16.6
2022-08-17T06:11:58.723Z,16.3
2022-08-17T06:14:08.999Z,16.1
2022-08-17T06:16:00.689Z,13.4
2022-08-17T06:17:55.776Z,12.5
2022-08-17T06:19:57.409Z,13.5
2022-08-17T06:21:55.062Z,12.5
2022-08-17T06:24:01.187Z,13.1
2022-08-17T06:26:01.283Z,13.5
2022-08-17T06:28:01.013Z,14.8
2022-08-17T06:30:01.718Z,16.7
2022-08-17T06:31:57.153Z,14
2022-08-17T06:34:00.617Z,14.1
2022-08-17T06:36:09.830Z,12.2
2022-08-17T06:38:08.307Z,12
2022-08-17T06:40:18.828Z,12.9
2022-08-17T06:42:09.990Z,11.9
2022-08-17T06:44:12.009Z,13.1
2022-08-17T06:46:07.523Z,12.3
2022-08-17T06:48:10.788Z,13.2
2022-08-17T06:50:10.560Z,13
2022-08-17T06:52:11.620Z,11.9
2022-08-17T06:54:10.477Z,9.7
2022-08-17T06:56:08.115Z,10.5
2022-08-17T06:58:16.438Z,10.1
2022-08-17T07:00:12.892Z,12.7
2022-08-17T07:02:14.642Z,13.2
2022-08-17T07:04:12.938Z,10.6
2022-08-17T07:06:14.687Z,9.8
2022-08-17T07:08:17.898Z,10.7
2022-08-17T07:10:11.477Z,11.2
2022-08-17T07:12:16.580Z,11.3
2022-08-17T07:14:26.700Z,9.4
2022-08-17T07:16:19.287Z,8.9
2022-08-17T07:18:12.816Z,9
2022-08-17T07:20:17.619Z,9.1
2022-08-17T07:22:22.140Z,9.4
2022-08-17T07:24:30.030Z,8.5
2022-08-17T07:26:15.452Z,8.8
2022-08-17T07:28:21.683Z,9.9
2022-08-17T07:30:20.562Z,11.5
2022-08-17T07:32:22.255Z,9.6
2022-08-17T07:34:18.000Z,9.3
2022-08-17T07:36:29.168Z,9.1
2022-08-17T07:38:25.530Z,9.8
2022-08-17T07:40:24.616Z,9
2022-08-17T07:42:21.237Z,8.8
2022-08-17T07:44:21.149Z,8
2022-08-17T07:46:23.817Z,8.5
2022-08-17T07:48:25.204Z,8.1
2022-08-17T07:50:25.984Z,7.5
2022-08-17T07:52:51.049Z,8.4
2022-08-17T07:54:31.840Z,7.7
2022-08-17T07:56:34.429Z,7.9
2022-08-17T07:58:25.228Z,8.4
2022-08-17T08:00:32.223Z,7.8
2022-08-17T08:02:37.137Z,8.4
2022-08-17T08:04:59.043Z,7.8
2022-08-17T08:06:27.617Z,8.1
2022-08-17T08:08:32.349Z,7.6
2022-08-17T08:10:32.889Z,7.5
2022-08-17T08:12:33.684Z,7.4
2022-08-17T08:14:31.684Z,7.3
2022-08-17T08:16:30.652Z,10.2
2022-08-17T08:18:38.778Z,6.9
2022-08-17T08:20:53.386Z,7.2
2022-08-17T08:22:42.550Z,6.4
2022-08-17T08:24:49.924Z,6.6
2022-08-17T08:26:40.085Z,6.7
2022-08-17T08:28:41.611Z,6.2
2022-08-17T08:30:43.610Z,7.3
2022-08-17T08:32:51.232Z,5.7
2022-08-17T08:34:58.564Z,6
2022-08-17T08:36:56.962Z,5.7
2022-08-17T08:38:45.972Z,5.2
2022-08-17T08:40:51.424Z,5.7
2022-08-17T08:42:48.559Z,5.9
2022-08-17T08:44:59.770Z,5.8
2022-08-17T08:46:48.476Z,5.5
2022-08-17T08:49:12.416Z,5.5
2022-08-17T08:50:48.069Z,5.9
2022-08-17T08:52:56.243Z,5.9
2022-08-17T08:54:50.762Z,7.6
2022-08-17T08:57:19.187Z,5.1
2022-08-17T08:58:49.716Z,5.9
2022-08-17T09:00:47.901Z,6
2022-08-17T09:03:11.332Z,6.3
2022-08-17T09:05:13.761Z,5.7
2022-08-17T09:06:55.149Z,5.1
2022-08-17T09:08:59.306Z,5.2
2022-08-17T09:10:56.466Z,5.2
2022-08-17T09:12:58.106Z,6
2022-08-17T09:14:54.598Z,5.8
2022-08-17T09:16:59.869Z,5.5
2022-08-17T09:19:00.772Z,6.3
2022-08-17T09:20:55.926Z,6.2
2022-08-17T09:22:55.468Z,7.2
2022-08-17T09:24:57.422Z,6.4
2022-08-17T09:26:57.955Z,5.4
2022-08-17T09:28:57.002Z,5.4
2022-08-17T09:30:57.775Z,5.5
2022-08-17T09:32:57.947Z,5.2
2022-08-17T09:35:11.225Z,4.8
2022-08-17T09:37:10.052Z,4.7
2022-08-17T09:38:59.692Z,4.8
2022-08-17T09:41:05.559Z,5.2
2022-08-17T09:43:03.439Z,5.2
2022-08-17T09:45:09.031Z,4.5
2022-08-17T09:47:04.810Z,4.8
2022-08-17T09:49:06.870Z,5.9
2022-08-17T09:51:06.762Z,5.1
2022-08-17T09:53:00.711Z,5.4
2022-08-17T09:55:00.813Z,5.2
2022-08-17T09:57:29.190Z,4.9
2022-08-17T09:59:25.543Z,6.2
2022-08-17T10:01:10.116Z,4.7
2022-08-17T10:03:21.423Z,4.4
2022-08-17T10:05:09.726Z,4.2
2022-08-17T10:07:11.433Z,4.3
2022-08-17T10:09:13.532Z,4.7
2022-08-17T10:11:17.188Z,5.4
2022-08-17T10:13:13.564Z,4.6
2022-08-17T10:15:17.487Z,4.6
2022-08-17T10:17:18.745Z,4.2
2022-08-17T10:19:14.747Z,4.4
2022-08-17T10:21:11.624Z,4.6
2022-08-17T10:23:15.079Z,5.2
2022-08-17T10:25:22.881Z,4.6
2022-08-17T10:27:17.655Z,4.5
2022-08-17T10:29:17.030Z,4.2
2022-08-17T10:31:36.292Z,3.7
2022-08-17T10:33:18.679Z,4.1
2022-08-17T10:35:28.123Z,4.5
2022-08-17T10:37:32.890Z,3.9
2022-08-17T10:39:23.960Z,4.4
2022-08-17T10:41:22.180Z,4.8
2022-08-17T10:43:27.013Z,4.5
2022-08-17T10:45:21.099Z,4.6
2022-08-17T10:47:18.185Z,5.6
2022-08-17T10:49:27.526Z,4.4
2022-08-17T10:51:34.698Z,5.7
2022-08-17T10:53:47.142Z,6.5
2022-08-17T10:55:18.900Z,7.1
2022-08-17T10:57:36.003Z,7.3
2022-08-17T10:59:48.806Z,4.3
2022-08-17T11:01:38.623Z,4.3
2022-08-17T11:03:22.893Z,4.8
2022-08-17T11:05:42.911Z,4.1
2022-08-17T11:07:36.726Z,4.2
2022-08-17T11:09:33.492Z,4.4
2022-08-17T11:11:44.211Z,4.6
2022-08-17T11:13:35.290Z,4.2
2022-08-17T11:15:41.375Z,5
2022-08-17T11:17:42.181Z,3.8
2022-08-17T11:19:52.293Z,4
2022-08-17T11:21:42.594Z,3.2
2022-08-17T11:23:44.693Z,3.4
2022-08-17T11:25:35.945Z,3.3
2022-08-17T11:27:33.271Z,3.3
2022-08-17T11:29:49.390Z,3.6
2022-08-17T11:31:38.295Z,4.1
2022-08-17T11:33:58.669Z,3.9
2022-08-17T11:35:38.123Z,3.9
2022-08-17T11:37:40.810Z,3.7
2022-08-17T11:39:49.270Z,4.4
2022-08-17T11:41:43.179Z,4
2022-08-17T11:43:57.891Z,3.9
2022-08-17T11:45:50.880Z,3.7
2022-08-17T11:47:40.225Z,3.4
2022-08-17T11:49:52.212Z,4.7
2022-08-17T11:51:54.320Z,4.2
2022-08-17T11:54:21.515Z,4.6
2022-08-17T11:56:02.001Z,5.1
2022-08-17T11:57:54.181Z,5.1
2022-08-17T11:59:53.277Z,5
2022-08-17T12:01:53.349Z,4.7
2022-08-17T12:03:55.360Z,4.3
2022-08-17T12:05:38.811Z,3.9
2022-08-17T12:07:44.381Z,4.3
2022-08-17T12:09:44.126Z,4.2
2022-08-17T12:12:11.067Z,4.8
2022-08-17T12:13:45.826Z,3.9
2022-08-17T12:15:44.661Z,3.9
2022-08-17T12:17:49.964Z,4.1
2022-08-17T12:19:42.735Z,3.4
2022-08-17T12:21:50.965Z,3.8
2022-08-17T12:23:54.112Z,4
2022-08-17T12:25:50.628Z,4.1
2022-08-17T12:28:05.195Z,4.2
2022-08-17T12:29:45.669Z,4.2
2022-08-17T12:31:48.280Z,4.4
2022-08-17T12:33:47.943Z,3.7
2022-08-17T12:35:47.242Z,3.9
2022-08-17T12:37:49.545Z,4
2022-08-17T12:39:52.706Z,3.7
2022-08-17T12:41:50.952Z,3.9
2022-08-17T12:43:56.400Z,4.2
2022-08-17T12:45:55.895Z,4.4
2022-08-17T12:48:00.299Z,4.6
2022-08-17T12:49:52.416Z,4.8
2022-08-17T12:51:58.926Z,4.1
2022-08-17T12:53:54.944Z,3.9
2022-08-17T12:55:54.115Z,4.6
2022-08-17T12:57:55.188Z,4.1
2022-08-17T12:59:57.533Z,4.2
2022-08-17T13:01:54.435Z,4.3
2022-08-17T13:03:55.903Z,4
2022-08-17T13:05:58.292Z,4.2
2022-08-17T13:07:59.007Z,4
2022-08-17T13:09:56.606Z,6
2022-08-17T13:11:58.468Z,5.8
2022-08-17T13:14:09.134Z,4.9
2022-08-17T13:16:01.126Z,4.5
2022-08-17T13:18:03.969Z,3.4
2022-08-17T13:19:59.774Z,3
2022-08-17T13:22:01.305Z,7.4
2022-08-17T13:24:02.717Z,5.6
2022-08-17T13:26:05.423Z,3.7
2022-08-17T13:28:01.706Z,3.7
2022-08-17T13:30:09.805Z,3.1
2022-08-17T13:32:16.632Z,3.7
2022-08-17T13:34:19.382Z,4.2
2022-08-17T13:36:07.039Z,3.4
2022-08-17T13:38:06.897Z,3.4
2022-08-17T13:40:34.471Z,3.5
2022-08-17T13:42:28.958Z,3.2
2022-08-17T13:44:35.670Z,3.2
2022-08-17T13:46:09.756Z,3.1
2022-08-17T13:48:11.957Z,3.2
2022-08-17T13:50:19.496Z,3.2
2022-08-17T13:52:28.534Z,3.2
2022-08-17T13:54:23.439Z,3.4
2022-08-17T13:56:37.720Z,3.3
2022-08-17T13:58:10.181Z,4.2
2022-08-17T14:00:17.515Z,4.4
2022-08-17T14:02:12.575Z,4.4
2022-08-17T14:04:13.792Z,4
2022-08-17T14:06:12.374Z,4.3
2022-08-17T14:08:14.843Z,4.1
2022-08-17T14:10:15.951Z,4.1
2022-08-17T14:12:17.494Z,4.4
2022-08-17T14:14:16.079Z,4.9
2022-08-17T14:16:15.293Z,5.3
2022-08-17T14:18:15.824Z,5.9
2022-08-17T14:20:20.602Z,5.8
2022-08-17T14:22:20.322Z,4.7
2022-08-17T14:24:22.943Z,4.7
2022-08-17T14:26:17.998Z,4.2
2022-08-17T14:28:18.627Z,4.1
2022-08-17T14:30:21.168Z,3.9
2022-08-17T14:32:22.066Z,4.1
2022-08-17T14:34:20.876Z,4.3
2022-08-17T14:36:20.957Z,4.3
2022-08-17T14:38:21.390Z,4.7
2022-08-17T14:40:23.632Z,4.3
2022-08-17T14:42:23.470Z,3.8
2022-08-17T14:44:23.286Z,3.9
2022-08-17T14:46:23.595Z,4.6
2022-08-17T14:48:24.385Z,3.9
2022-08-17T14:50:24.725Z,3.8
2022-08-17T14:52:25.267Z,3.8
2022-08-17T14:54:33.189Z,3.8
2022-08-17T14:56:26.626Z,4
2022-08-17T14:58:26.939Z,3.8
2022-08-17T15:00:27.441Z,3.7
2022-08-17T15:02:30.074Z,3.7
2022-08-17T15:04:28.620Z,3.9
2022-08-17T15:06:29.142Z,3.7
2022-08-17T15:08:30.250Z,3.6
2022-08-17T15:10:31.083Z,4.2
2022-08-17T15:12:34.616Z,4.1
2022-08-17T15:14:31.330Z,4.3
2022-08-17T15:16:31.901Z,3.9
2022-08-17T15:18:32.321Z,4.8
2022-08-17T15:20:32.860Z,4.5
2022-08-17T15:22:33.368Z,4.2
2022-08-17T15:24:33.992Z,4.1
2022-08-17T15:26:34.704Z,4.6
2022-08-17T15:28:35.173Z,4.1
2022-08-17T15:30:35.565Z,4.1
2022-08-17T15:32:39.306Z,4.6
2022-08-17T15:34:36.663Z,4.2
2022-08-17T15:36:37.243Z,4.1
2022-08-17T15:38:37.721Z,4
2022-08-17T15:40:40.697Z,4.3
2022-08-17T15:42:38.809Z,3.9
2022-08-17T15:44:40.030Z,4.4
2022-08-17T15:46:39.846Z,4.2
2022-08-17T15:48:42.723Z,4.8
2022-08-17T15:50:41.681Z,4.2
2022-08-17T15:52:41.496Z,4.4
2022-08-17T15:54:42.198Z,4.4
2022-08-17T15:56:42.575Z,4
2022-08-17T15:58:45.106Z,4.3
2022-08-17T16:00:53.095Z,4
2022-08-17T16:03:47.108Z,4.2
2022-08-17T16:04:44.750Z,4.2
2022-08-17T16:06:45.177Z,4.9
2022-08-17T16:08:45.812Z,4.5
2022-08-17T16:10:46.396Z,5.3
2022-08-17T16:12:48.602Z,4.6
2022-08-17T16:14:49.013Z,4.3
2022-08-17T16:16:47.785Z,4.1
2022-08-17T16:18:48.301Z,4.2
2022-08-17T16:20:49.137Z,4.1
2022-08-17T16:22:50.318Z,4.3
2022-08-17T16:24:57.087Z,3.8
2022-08-17T16:26:50.606Z,4.4
2022-08-17T16:28:51.596Z,4.1
2022-08-17T16:30:51.461Z,3.9
2022-08-17T16:32:54.955Z,4
2022-08-17T16:34:52.682Z,3.8
2022-08-17T16:36:56.043Z,4.4
2022-08-17T16:38:53.422Z,4
2022-08-17T16:40:53.948Z,4.1
2022-08-17T16:42:55.213Z,4.6
2022-08-17T16:45:03.524Z,5
2022-08-17T16:46:55.960Z,5
2022-08-17T16:48:56.290Z,6.8
2022-08-17T16:51:03.519Z,6.3
2022-08-17T16:53:04.241Z,7.5
2022-08-17T16:54:59.834Z,7.9
2022-08-17T16:56:58.049Z,9.3
2022-08-17T16:58:58.481Z,8
2022-08-17T17:00:59.066Z,7.8
2022-08-17T17:03:07.667Z,5.8
2022-08-17T17:05:06.616Z,4.5
2022-08-17T17:07:11.962Z,4.7
2022-08-17T17:09:05.189Z,4.5
2022-08-17T17:11:11.112Z,4.7
2022-08-17T17:13:04.704Z,4.4
2022-08-17T17:15:02.768Z,4.2
2022-08-17T17:17:05.710Z,4.3
2022-08-17T17:19:11.172Z,4.3
2022-08-17T17:21:08.123Z,4.1
2022-08-17T17:23:08.676Z,4.3
2022-08-17T17:25:11.578Z,4.3
2022-08-17T17:27:19.266Z,4.3
2022-08-17T17:29:18.699Z,4.7
2022-08-17T17:31:12.270Z,4.9
2022-08-17T17:33:13.733Z,4.6
2022-08-17T17:35:20.846Z,4.3
2022-08-17T17:37:14.611Z,4.3
2022-08-17T17:39:13.096Z,4.4
2022-08-17T17:41:16.329Z,4
2022-08-17T17:43:36.878Z,4.7
2022-08-17T17:45:16.358Z,4.3
2022-08-17T17:47:11.945Z,4.5
2022-08-17T17:49:11.097Z,4
2022-08-17T17:52:06.548Z,4.3
2022-08-17T17:53:18.253Z,4.3
2022-08-17T17:55:22.850Z,4.3
2022-08-17T17:57:21.687Z,4
2022-08-17T17:59:23.554Z,4
2022-08-17T18:01:27.802Z,3.9
2022-08-17T18:03:28.791Z,4.1
2022-08-17T18:05:26.889Z,4.3
2022-08-17T18:07:27.744Z,3.8
2022-08-17T18:09:28.350Z,3.9
2022-08-17T18:11:33.085Z,3.9
2022-08-17T18:13:26.665Z,4.3
2022-08-17T18:15:24.389Z,4.1
2022-08-17T18:17:17.457Z,4.2
2022-08-17T18:19:18.768Z,3.7
2022-08-17T18:21:21.197Z,4
2022-08-17T18:23:19.974Z,3.8
2022-08-17T18:25:38.127Z,4.2
2022-08-17T18:27:23.587Z,4
2022-08-17T18:29:30.832Z,4
2022-08-17T18:31:21.335Z,3.9
2022-08-17T18:33:23.568Z,3.9
2022-08-17T18:35:28.066Z,4.2
2022-08-17T18:37:32.610Z,3.9
2022-08-17T18:39:26.811Z,3.9
2022-08-17T18:41:24.596Z,3.9
2022-08-17T18:43:26.831Z,3.9
2022-08-17T18:45:32.023Z,3.5
2022-08-17T18:47:25.878Z,3.7
2022-08-17T18:49:27.336Z,3.9
2022-08-17T18:51:41.042Z,4
2022-08-17T18:53:33.474Z,4
2022-08-17T18:55:27.191Z,3.6
2022-08-17T18:57:30.934Z,4.1
2022-08-17T18:59:33.555Z,3.7
2022-08-17T19:01:42.053Z,3.8
2022-08-17T19:03:27.306Z,3.5
2022-08-17T19:05:33.997Z,3.6
2022-08-17T19:07:31.352Z,4
2022-08-17T19:09:33.268Z,3.7
2022-08-17T19:11:31.946Z,3.6
2022-08-17T19:13:33.338Z,3.8
2022-08-17T19:15:35.848Z,3.4
2022-08-17T19:17:38.981Z,3.6
2022-08-17T19:19:36.429Z,3.7
2022-08-17T19:21:37.172Z,3.8
2022-08-17T19:23:39.367Z,3.6
2022-08-17T19:25:37.617Z,3.8
2022-08-17T19:27:41.823Z,3.4
2022-08-17T19:29:41.463Z,3.8
2022-08-17T19:31:34.107Z,3.7
2022-08-17T19:33:33.952Z,3.7
2022-08-17T19:35:45.111Z,3.7
2022-08-17T19:37:41.491Z,4
2022-08-17T19:39:42.849Z,4.1
2022-08-17T19:41:43.159Z,3.8
2022-08-17T19:43:56.521Z,3.6
2022-08-17T19:45:43.075Z,3.8
2022-08-17T19:48:04.987Z,3.8
2022-08-17T19:49:48.819Z,4.1
2022-08-17T19:51:46.172Z,4.1
2022-08-17T19:54:05.016Z,3.9
2022-08-17T19:55:50.092Z,4.2
2022-08-17T19:57:46.589Z,3.4
2022-08-17T19:59:49.335Z,3.8
2022-08-17T20:01:46.589Z,4.1
2022-08-17T20:03:49.868Z,3.9
2022-08-17T20:06:09.212Z,3.7
2022-08-17T20:07:49.300Z,4.2
2022-08-17T20:09:46.429Z,4
2022-08-17T20:11:46.854Z,3.7
2022-08-17T20:13:46.501Z,3.5
2022-08-17T20:15:42.528Z,3.8
2022-08-17T20:17:46.095Z,3.7
2022-08-17T20:19:49.933Z,3.8
2022-08-17T20:21:50.974Z,4.2
2022-08-17T20:23:51.550Z,3.6
2022-08-17T20:25:46.845Z,3.6
2022-08-17T20:27:52.884Z,3.8
2022-08-17T20:30:01.239Z,3.9
2022-08-17T20:31:49.764Z,4.1
2022-08-17T20:33:46.188Z,3.4
2022-08-17T20:36:03.069Z,3.9
2022-08-17T20:37:54.625Z,3.5
2022-08-17T20:40:18.739Z,3.1
2022-08-17T20:42:03.962Z,3.5
2022-08-17T20:44:01.035Z,3.9
2022-08-17T20:46:02.311Z,3.7
2022-08-17T20:48:18.482Z,3.2
2022-08-17T20:49:53.856Z,3.3
2022-08-17T20:52:01.613Z,3.6
2022-08-17T20:54:16.868Z,3.3
2022-08-17T20:55:53.821Z,3.7
2022-08-17T20:57:51.152Z,3.9
2022-08-17T20:59:55.568Z,3.5
2022-08-17T21:02:17.689Z,3.4
2022-08-17T21:03:52.437Z,3.3
2022-08-17T21:05:57.359Z,3.3
2022-08-17T21:07:56.891Z,3.5
2022-08-17T21:10:09.169Z,3.3
2022-08-17T21:12:03.937Z,3.4
2022-08-17T21:14:05.908Z,3.4
2022-08-17T21:15:59.856Z,3.6
2022-08-17T21:18:04.267Z,3.2
2022-08-17T21:20:11.526Z,3.7
2022-08-17T21:22:13.198Z,3.6
2022-08-17T21:24:13.159Z,3.5
2022-08-17T21:26:11.391Z,3.4
2022-08-17T21:28:04.830Z,3.4
2022-08-17T21:30:22.190Z,3.5
2022-08-17T21:32:18.585Z,3.4
2022-08-17T21:34:27.403Z,3.2
2022-08-17T21:36:20.280Z,3.2
2022-08-17T21:38:02.713Z,3.4
2022-08-17T21:40:16.128Z,3.5
2022-08-17T21:41:59.887Z,3.5
2022-08-17T21:44:10.180Z,3.5
2022-08-17T21:46:03.714Z,3.8
2022-08-17T21:48:16.866Z,3.8
2022-08-17T21:50:16.905Z,3.8
2022-08-17T21:52:01.770Z,4.4
2022-08-17T21:54:11.903Z,4.4
2022-08-17T21:56:02.809Z,4.1
2022-08-17T21:58:13.456Z,4.2
2022-08-17T22:00:06.854Z,4.7
2022-08-17T22:02:07.880Z,4.9
2022-08-17T22:04:17.049Z,4.6
2022-08-17T22:06:19.298Z,4.8
2022-08-17T22:08:16.464Z,5.6
2022-08-17T22:10:21.738Z,5.3
2022-08-17T22:12:09.117Z,5.9
2022-08-17T22:14:16.013Z,6.7
2022-08-17T22:16:27.999Z,8
2022-08-17T22:18:09.131Z,7.6
2022-08-17T22:20:10.697Z,8.8
2022-08-17T22:22:09.775Z,9
2022-08-17T22:24:16.642Z,9.8
2022-08-17T22:26:12.803Z,11.3
2022-08-17T22:28:10.520Z,12
2022-08-17T22:30:19.092Z,12.7
2022-08-17T22:32:09.734Z,13
2022-08-17T22:34:13.572Z,13.8
2022-08-17T22:36:18.816Z,13.5
2022-08-17T22:38:27.418Z,13.2
2022-08-17T22:40:24.898Z,13.6
2022-08-17T22:42:13.893Z,14.7
2022-08-17T22:44:18.519Z,13.9
2022-08-17T22:46:12.538Z,15.2
2022-08-17T22:48:17.418Z,15.2
2022-08-17T22:50:21.289Z,14.8
2022-08-17T22:52:29.225Z,15.4
2022-08-17T22:54:17.871Z,15.9
2022-08-17T22:56:17.028Z,15.8
2022-08-17T22:58:17.799Z,16.3
2022-08-17T23:00:31.233Z,16.5
2022-08-17T23:02:22.827Z,16.3
2022-08-17T23:04:32.360Z,16.1
2022-08-17T23:06:15.824Z,17
2022-08-17T23:08:16.393Z,17.6
2022-08-17T23:10:16.631Z,17.1
2022-08-17T23:12:24.025Z,17.3
2022-08-17T23:14:19.450Z,17.1
2022-08-17T23:16:18.706Z,17.7
2022-08-17T23:18:18.066Z,19.3
2022-08-17T23:20:18.742Z,17.6
2022-08-17T23:22:18.821Z,17.6
2022-08-17T23:24:22.357Z,19.5
2022-08-17T23:26:21.125Z,18.3
2022-08-17T23:28:19.958Z,19.1
2022-08-17T23:30:20.490Z,19.9
2022-08-17T23:32:21.689Z,19.4
2022-08-17T23:34:21.222Z,18.8
2022-08-17T23:36:21.513Z,19
2022-08-17T23:38:21.849Z,19.6
2022-08-17T23:40:22.597Z,19.9
2022-08-17T23:42:22.720Z,20.5
2022-08-17T23:44:23.577Z,20.4
2022-08-17T23:46:23.490Z,20.5
2022-08-17T23:48:32.430Z,21.2
2022-08-17T23:50:24.311Z,20.9
2022-08-17T23:52:24.489Z,21.7
2022-08-17T23:54:30.479Z,21.4
2022-08-17T23:56:25.155Z,21.6
2022-08-17T23:58:25.667Z,21.8
